Time;durP1;ratioP1;P1;durP2;ratioP2;P2;SDS_P1;SDS_P2;PMS_P1;PMS_P2;Temp;Humidity;BMP_temperature;BMP_pressure;BME280_temperature;BME280_humidity;BME280_pressure;Samples;Min_cycle;Max_cycle;Signal;HPM_P1;HPM_P2
2023/03/23 00:01:24;;;;;;;65.60;43.40;;;;;;;8.64;92.59;99936.16;104969;1267;99441;-79
2023/03/23 00:04:12;;;;;;;70.70;43.30;;;;;;;8.65;92.73;99939.05;105011;1268;97969;-79
2023/03/23 00:07:00;;;;;;;67.00;42.30;;;;;;;8.66;93.06;99938.21;105206;1264;97805;-77
2023/03/23 00:09:53;;;;;;;69.10;43.60;;;;;;;8.67;93.18;99934.63;105144;1265;102617;-79
2023/03/23 00:12:41;;;;;;;63.70;41.10;;;;;;;8.67;93.24;99936.83;105181;1264;100355;-78
2023/03/23 00:15:32;;;;;;;67.20;41.40;;;;;;;8.67;93.04;99934.02;105135;1264;98768;-79
2023/03/23 00:18:21;;;;;;;68.70;41.60;;;;;;;8.67;93.23;99934.21;105089;1267;98625;-78
2023/03/23 00:21:07;;;;;;;65.80;39.40;;;;;;;8.66;93.14;99929.16;105133;1266;98607;-78
2023/03/23 00:23:52;;;;;;;65.90;39.40;;;;;;;8.65;93.09;99932.11;105266;1264;101405;-79
2023/03/23 00:26:40;;;;;;;64.90;42.40;;;;;;;8.64;93.18;99933.46;105293;1264;100145;-78
2023/03/23 00:29:25;;;;;;;63.90;42.30;;;;;;;8.65;93.46;99930.52;105299;1264;98047;-79
2023/03/23 00:32:14;;;;;;;67.10;40.70;;;;;;;8.66;93.35;99930.76;105290;1266;98061;-80
2023/03/23 00:35:00;;;;;;;64.20;39.80;;;;;;;8.67;93.30;99929.61;105244;1264;99195;-77
2023/03/23 00:37:45;;;;;;;62.90;39.70;;;;;;;8.69;93.60;99930.42;105306;1267;112291;-78
2023/03/23 00:40:30;;;;;;;57.60;36.90;;;;;;;8.71;93.76;99928.19;105325;1264;99186;-79
2023/03/23 00:43:18;;;;;;;57.10;37.40;;;;;;;8.74;93.96;99929.07;105263;1268;99122;-81
2023/03/23 00:46:08;;;;;;;60.10;37.60;;;;;;;8.76;94.13;99931.64;105205;1264;98065;-80
2023/03/23 00:48:56;;;;;;;58.90;36.70;;;;;;;8.79;94.31;99929.45;105409;1266;98072;-79
2023/03/23 00:51:43;;;;;;;61.30;35.80;;;;;;;8.81;94.24;99925.28;105231;1268;101351;-80
2023/03/23 00:54:28;;;;;;;52.20;33.90;;;;;;;8.81;93.97;99922.41;105581;1264;99519;-78
2023/03/23 00:57:14;;;;;;;54.00;34.00;;;;;;;8.81;93.92;99924.05;105255;1270;99812;-78
2023/03/23 01:00:00;;;;;;;56.60;33.20;;;;;;;8.81;94.08;99922.65;105377;1264;98539;-80
2023/03/23 01:02:45;;;;;;;48.50;31.80;;;;;;;8.81;94.18;99923.15;105252;1267;99605;-79
2023/03/23 01:05:36;;;;;;;43.60;28.80;;;;;;;8.80;94.38;99921.25;105281;1268;102156;-80
2023/03/23 01:08:23;;;;;;;46.80;28.10;;;;;;;8.80;94.78;99918.27;105283;1266;100381;-79
2023/03/23 01:11:09;;;;;;;43.60;26.10;;;;;;;8.82;95.05;99915.02;105114;1267;98055;-80
2023/03/23 01:13:54;;;;;;;47.80;27.60;;;;;;;8.85;95.44;99910.77;105276;1268;97981;-79
2023/03/23 01:16:40;;;;;;;46.60;26.70;;;;;;;8.89;95.85;99910.63;105279;1266;98414;-81
2023/03/23 01:19:26;;;;;;;40.50;26.10;;;;;;;8.93;96.14;99912.73;105376;1268;102633;-79
2023/03/23 01:22:12;;;;;;;46.90;26.80;;;;;;;8.96;96.03;99910.17;105368;1263;100180;-80
2023/03/23 01:24:57;;;;;;;41.60;25.90;;;;;;;9.00;96.10;99906.42;105273;1267;98319;-78
2023/03/23 01:27:43;;;;;;;47.80;28.00;;;;;;;9.03;95.96;99899.14;105415;1266;97927;-79
2023/03/23 01:30:28;;;;;;;41.60;27.60;;;;;;;9.05;96.22;99893.19;105287;1264;98417;-79
2023/03/23 01:33:14;;;;;;;44.00;27.30;;;;;;;9.08;96.10;99890.48;105420;1264;101372;-79
2023/03/23 01:36:11;;;;;;;43.40;27.90;;;;;;;9.11;96.15;99893.10;105399;1265;99080;-78
2023/03/23 01:39:03;;;;;;;49.20;28.20;;;;;;;9.13;96.12;99890.13;105308;1264;99032;-79
2023/03/23 01:41:50;;;;;;;41.70;27.00;;;;;;;9.15;96.24;99890.80;105342;1264;97938;-79
2023/03/23 01:44:39;;;;;;;45.80;27.00;;;;;;;9.17;96.11;99892.20;105259;1267;97885;-80
2023/03/23 01:47:27;;;;;;;45.50;28.70;;;;;;;9.19;96.02;99895.80;105307;1263;101334;-80
2023/03/23 01:50:13;;;;;;;36.40;25.30;;;;;;;9.21;96.32;99896.30;105224;1266;100351;-79
2023/03/23 01:53:01;;;;;;;42.90;27.70;;;;;;;9.22;96.20;99887.93;105248;1264;97993;-80
2023/03/23 01:55:50;;;;;;;44.20;27.10;;;;;;;9.24;96.39;99888.23;105201;1268;97975;-80
2023/03/23 01:58:40;;;;;;;42.20;27.90;;;;;;;9.25;96.11;99887.02;105336;1274;98529;-80
2023/03/23 02:01:26;;;;;;;43.90;27.50;;;;;;;9.27;95.99;99890.02;105159;1264;103407;-77
2023/03/23 02:04:14;;;;;;;44.90;26.80;;;;;;;9.28;95.98;99891.79;105119;1267;100368;-79
2023/03/23 02:07:01;;;;;;;45.90;28.30;;;;;;;9.29;95.95;99888.84;105057;1264;98946;-76
2023/03/23 02:09:50;;;;;;;44.10;28.10;;;;;;;9.30;96.06;99884.98;104773;1264;98029;-78
2023/03/23 02:12:36;;;;;;;43.90;27.50;;;;;;;9.31;96.19;99883.02;105142;1264;98410;-78
2023/03/23 02:15:25;;;;;;;51.30;29.30;;;;;;;9.32;96.32;99883.80;105042;1268;102641;-79
2023/03/23 02:18:56;;;;;;;42.80;27.60;;;;;;;9.34;96.19;99880.85;105169;1264;100360;-78
2023/03/23 02:22:17;;;;;;;43.10;26.50;;;;;;;9.36;96.38;99873.71;105037;1264;98134;-80
2023/03/23 02:25:22;;;;;;;43.30;27.00;;;;;;;9.37;96.35;99872.48;105040;1268;97997;-77
2023/03/23 02:28:19;;;;;;;45.30;27.20;;;;;;;9.37;96.22;99876.92;105086;1265;101612;-78
2023/03/23 02:31:39;;;;;;;43.50;27.70;;;;;;;9.39;96.17;99876.32;105139;1267;101484;-78
2023/03/23 02:34:31;;;;;;;40.60;27.20;;;;;;;9.41;96.03;99882.88;105250;1264;99158;-78
2023/03/23 02:37:26;;;;;;;40.20;26.40;;;;;;;9.42;96.09;99880.86;105089;1264;99246;-79
2023/03/23 02:40:18;;;;;;;40.30;26.70;;;;;;;9.42;95.90;99885.80;105301;1264;97971;-80
2023/03/23 02:43:09;;;;;;;41.60;25.60;;;;;;;9.40;96.04;99878.84;105055;1264;98743;-77
2023/03/23 02:45:57;;;;;;;43.80;26.60;;;;;;;9.41;95.81;99877.08;105006;1268;101377;-79
2023/03/23 02:48:45;;;;;;;41.20;25.10;;;;;;;9.41;95.69;99873.09;105033;1267;99095;-78
2023/03/23 02:51:34;;;;;;;42.90;25.50;;;;;;;9.41;95.63;99878.60;104950;1268;98999;-78
2023/03/23 02:54:25;;;;;;;42.40;26.00;;;;;;;9.41;95.60;99877.49;105029;1267;98387;-78
2023/03/23 02:57:11;;;;;;;45.10;25.70;;;;;;;9.42;95.69;99878.60;105169;1264;97964;-78
2023/03/23 02:59:59;;;;;;;38.50;25.90;;;;;;;9.42;95.60;99879.26;105239;1267;101434;-79
2023/03/23 03:02:54;;;;;;;42.80;26.10;;;;;;;9.41;95.52;99876.00;105274;1262;100373;-79
2023/03/23 03:05:59;;;;;;;41.40;25.50;;;;;;;9.39;95.38;99879.56;105263;1264;97977;-78
2023/03/23 03:09:03;;;;;;;41.50;25.70;;;;;;;9.38;95.39;99883.10;105410;1266;98031;-78
2023/03/23 03:11:54;;;;;;;41.00;25.70;;;;;;;9.38;95.49;99884.58;105412;1264;98207;-79
2023/03/23 03:14:51;;;;;;;41.50;25.10;;;;;;;9.37;95.34;99884.83;105248;1267;103329;-79
2023/03/23 03:17:46;;;;;;;37.30;24.00;;;;;;;9.37;95.11;99885.15;105328;1264;100163;-79
2023/03/23 03:20:36;;;;;;;40.10;24.70;;;;;;;9.35;95.38;99882.21;105113;1266;98052;-79
2023/03/23 03:23:23;;;;;;;35.70;22.80;;;;;;;9.33;95.25;99889.92;105326;1265;98049;-79
2023/03/23 03:26:16;;;;;;;35.20;24.30;;;;;;;9.32;95.12;99888.41;105279;1266;98498;-81
2023/03/23 03:29:07;;;;;;;37.80;24.00;;;;;;;9.30;95.34;99884.91;105230;1267;101391;-79
2023/03/23 03:31:58;;;;;;;39.90;24.40;;;;;;;9.30;95.19;99878.56;105481;1264;99206;-79
2023/03/23 03:34:44;;;;;;;40.10;23.10;;;;;;;9.28;95.05;99874.69;105322;1264;98992;-78
2023/03/23 03:37:38;;;;;;;38.00;24.50;;;;;;;9.29;95.11;99866.93;105384;1268;98688;-78
2023/03/23 03:40:23;;;;;;;37.30;23.80;;;;;;;9.30;95.01;99868.24;105350;1263;99635;-79
2023/03/23 03:43:09;;;;;;;35.20;23.60;;;;;;;9.30;94.86;99869.08;105435;1264;101414;-81
2023/03/23 03:45:55;;;;;;;38.10;23.50;;;;;;;9.29;94.79;99866.56;105134;1264;100782;-79
2023/03/23 03:48:41;;;;;;;41.70;24.50;;;;;;;9.28;94.89;99861.50;105224;1266;99336;-78
2023/03/23 03:51:28;;;;;;;39.90;24.20;;;;;;;9.27;95.18;99866.09;105149;1268;98015;-78
2023/03/23 03:54:15;;;;;;;37.70;22.20;;;;;;;9.27;95.03;99869.30;105067;1267;98512;-78
2023/03/23 03:57:01;;;;;;;33.10;21.70;;;;;;;9.26;95.06;99872.29;105184;1264;102271;-78
2023/03/23 04:00:15;;;;;;;34.40;21.70;;;;;;;9.23;95.07;99863.40;105002;1264;99543;-78
2023/03/23 04:03:01;;;;;;;36.90;22.20;;;;;;;9.23;95.12;99861.49;105134;1264;98954;-77
2023/03/23 04:06:02;;;;;;;35.00;21.70;;;;;;;9.21;95.00;99866.14;105065;1264;98067;-79
2023/03/23 04:08:48;;;;;;;37.10;22.70;;;;;;;9.20;95.10;99861.81;105128;1264;97982;-78
2023/03/23 04:11:34;;;;;;;36.80;22.40;;;;;;;9.18;95.07;99864.77;105093;1264;101370;-79
2023/03/23 04:14:40;;;;;;;39.20;23.40;;;;;;;9.17;95.16;99869.27;105110;1265;100869;-79
2023/03/23 04:17:28;;;;;;;34.70;21.40;;;;;;;9.16;95.10;99869.14;105086;1266;98749;-77
2023/03/23 04:20:15;;;;;;;36.80;22.80;;;;;;;9.15;95.23;99867.66;105222;1267;97984;-78
2023/03/23 04:23:01;;;;;;;36.70;22.80;;;;;;;9.14;95.31;99864.98;105162;1264;98719;-78
2023/03/23 04:25:50;;;;;;;31.90;21.30;;;;;;;9.13;95.12;99863.61;105174;1264;101379;-79
2023/03/23 04:28:35;;;;;;;38.40;22.60;;;;;;;9.14;94.99;99861.23;105096;1264;100381;-78
2023/03/23 04:31:40;;;;;;;32.50;22.10;;;;;;;9.14;95.18;99859.06;105094;1266;98612;-78
2023/03/23 04:34:35;;;;;;;34.50;20.60;;;;;;;9.14;95.33;99861.97;105156;1267;97947;-79
2023/03/23 04:37:25;;;;;;;35.00;21.90;;;;;;;9.14;95.37;99861.89;105111;1267;98588;-78
2023/03/23 04:40:14;;;;;;;30.60;19.10;;;;;;;9.15;95.39;99855.45;105158;1265;101358;-78
2023/03/23 04:43:05;;;;;;;30.80;20.20;;;;;;;9.15;95.50;99847.92;104862;1268;100365;-78
2023/03/23 04:46:02;;;;;;;31.00;20.00;;;;;;;9.15;95.51;99853.72;104788;1267;99413;-78
2023/03/23 04:48:49;;;;;;;30.90;19.20;;;;;;;9.17;95.41;99856.98;105055;1267;98079;-79
2023/03/23 04:51:42;;;;;;;34.10;19.90;;;;;;;9.18;95.63;99855.55;105346;1267;98073;-78
2023/03/23 04:54:48;;;;;;;33.00;20.30;;;;;;;9.18;95.61;99852.83;105111;1264;101376;-79
2023/03/23 04:57:35;;;;;;;33.10;20.40;;;;;;;9.19;95.56;99847.59;105010;1266;99270;-77
2023/03/23 05:00:40;;;;;;;26.90;19.40;;;;;;;9.20;95.68;99849.23;105084;1266;97980;-78
2023/03/23 05:03:26;;;;;;;32.30;20.10;;;;;;;9.20;95.88;99853.83;105012;1268;98089;-78
2023/03/23 05:06:12;;;;;;;31.60;20.40;;;;;;;9.22;95.60;99850.26;105099;1267;98092;-76
2023/03/23 05:08:58;;;;;;;32.90;19.80;;;;;;;9.24;95.67;99844.65;105074;1264;101481;-77
2023/03/23 05:11:45;;;;;;;31.20;19.30;;;;;;;9.25;95.72;99838.04;105021;1264;100177;-78
2023/03/23 05:14:31;;;;;;;33.70;19.70;;;;;;;9.27;95.85;99836.87;105214;1264;98036;-79
2023/03/23 05:17:23;;;;;;;29.00;17.70;;;;;;;9.29;95.82;99835.73;105217;1265;98031;-78
2023/03/23 05:20:12;;;;;;;28.90;19.10;;;;;;;9.31;95.73;99834.50;105116;1264;98505;-78
2023/03/23 05:23:00;;;;;;;30.40;20.40;;;;;;;9.33;95.83;99835.86;105101;1270;101375;-78
2023/03/23 05:26:00;;;;;;;27.60;18.60;;;;;;;9.34;95.61;99837.71;104962;1268;99294;-77
2023/03/23 05:28:48;;;;;;;28.20;17.80;;;;;;;9.36;95.60;99842.35;104970;1267;99558;-79
2023/03/23 05:31:39;;;;;;;32.30;19.50;;;;;;;9.38;95.52;99839.14;105021;1264;98582;-79
2023/03/23 05:34:26;;;;;;;29.30;18.60;;;;;;;9.39;95.75;99840.34;105192;1266;98381;-78
2023/03/23 05:37:17;;;;;;;27.90;18.20;;;;;;;9.41;95.87;99846.67;105408;1267;102603;-78
2023/03/23 05:40:09;;;;;;;28.00;18.00;;;;;;;9.43;95.90;99846.73;105111;1264;100221;-79
2023/03/23 05:43:01;;;;;;;29.30;18.90;;;;;;;9.45;95.75;99850.11;104987;1264;99990;-78
2023/03/23 05:45:58;;;;;;;31.90;18.60;;;;;;;9.48;95.70;99851.90;105338;1263;98079;-79
2023/03/23 05:48:44;;;;;;;31.80;17.90;;;;;;;9.50;95.93;99845.73;105373;1262;97940;-79
2023/03/23 05:51:35;;;;;;;27.00;18.20;;;;;;;9.52;95.93;99847.19;105167;1267;101372;-79
2023/03/23 05:54:21;;;;;;;26.10;17.50;;;;;;;9.55;95.85;99847.20;105014;1265;99178;-79
2023/03/23 05:57:08;;;;;;;29.00;18.20;;;;;;;9.56;95.95;99845.36;105295;1267;97946;-81
2023/03/23 06:00:11;;;;;;;31.50;18.30;;;;;;;9.59;95.80;99848.63;105214;1264;97954;-79
2023/03/23 06:02:58;;;;;;;;;;;;;;;9.62;95.74;99851.45;106431;1266;98012;-80
2023/03/23 06:05:57;;;;;;;34.20;17.60;;;;;;;9.64;96.09;99851.12;105313;1267;101372;-78
2023/03/23 06:08:50;;;;;;;32.50;18.30;;;;;;;9.67;96.11;99848.22;105407;1264;99141;-80
2023/03/23 06:11:39;;;;;;;25.10;16.70;;;;;;;9.69;96.02;99850.77;105264;1268;98599;-80
2023/03/23 06:14:40;;;;;;;28.70;16.40;;;;;;;9.73;95.91;99851.77;105168;1265;97889;-78
2023/03/23 06:17:27;;;;;;;29.60;17.40;;;;;;;9.76;95.79;99848.66;105360;1265;99659;-79
2023/03/23 06:20:13;;;;;;;29.70;17.50;;;;;;;9.79;95.92;99843.13;105343;1266;101363;-80
2023/03/23 06:23:00;;;;;;;24.50;16.00;;;;;;;9.83;95.79;99839.77;105401;1264;99090;-78
2023/03/23 06:25:54;;;;;;;29.10;17.20;;;;;;;9.84;95.80;99838.68;105371;1265;98994;-80
2023/03/23 06:28:40;;;;;;;26.20;17.40;;;;;;;9.85;95.86;99831.58;105293;1265;97911;-78
2023/03/23 06:31:27;;;;;;;23.70;16.00;;;;;;;9.87;95.90;99829.16;105197;1268;98423;-78
2023/03/23 06:34:14;;;;;;;25.10;16.10;;;;;;;9.92;96.10;99833.59;105410;1267;101721;-77
2023/03/23 06:37:19;;;;;;;24.50;15.70;;;;;;;9.98;96.27;99838.50;105404;1267;100388;-80
2023/03/23 06:40:18;;;;;;;25.20;14.90;;;;;;;10.05;96.34;99841.11;105352;1264;99006;-79
2023/03/23 06:43:09;;;;;;;26.30;14.90;;;;;;;10.12;96.33;99840.70;105387;1267;99120;-78
2023/03/23 06:46:27;;;;;;;25.10;15.40;;;;;;;10.20;95.95;99842.86;105516;1266;97949;-78
2023/03/23 06:49:34;;;;;;;24.90;16.00;;;;;;;10.28;95.99;99840.91;105216;1268;102304;-80
2023/03/23 06:52:32;;;;;;;23.60;15.20;;;;;;;10.34;95.89;99844.58;105369;1264;100369;-79
2023/03/23 06:55:17;;;;;;;23.00;14.80;;;;;;;10.39;95.54;99848.70;105265;1266;98082;-79
2023/03/23 06:58:05;;;;;;;28.60;14.90;;;;;;;10.43;95.33;99856.05;105204;1274;97878;-79
2023/03/23 07:00:59;;;;;;;18.30;13.90;;;;;;;10.47;94.93;99862.14;105189;1264;98426;-78
2023/03/23 07:03:51;;;;;;;23.90;14.70;;;;;;;10.51;95.03;99860.45;105001;1266;102646;-78
2023/03/23 07:06:42;;;;;;;24.50;15.50;;;;;;;10.60;95.01;99866.40;105148;1268;100322;-79
2023/03/23 07:09:27;;;;;;;23.80;14.40;;;;;;;10.71;95.47;99867.02;105010;1267;97999;-78
2023/03/23 07:12:14;;;;;;;19.60;12.90;;;;;;;10.86;95.67;99860.86;105061;1265;97970;-79
2023/03/23 07:15:04;;;;;;;21.60;13.60;;;;;;;11.06;95.95;99862.46;105409;1265;98057;-79
2023/03/23 07:17:51;;;;;;;21.30;13.00;;;;;;;11.28;96.06;99863.66;105317;1266;101350;-78
2023/03/23 07:20:50;;;;;;;21.10;12.80;;;;;;;11.49;96.10;99865.06;105215;1267;99904;-80
2023/03/23 07:23:36;;;;;;;19.50;11.70;;;;;;;11.63;95.65;99866.65;105099;1264;98439;-78
2023/03/23 07:26:24;;;;;;;21.00;12.70;;;;;;;11.72;94.60;99865.70;105065;1265;97977;-80
2023/03/23 07:29:13;;;;;;;18.50;12.80;;;;;;;11.77;94.18;99866.70;105189;1264;97874;-80
2023/03/23 07:32:05;;;;;;;18.90;11.60;;;;;;;11.82;93.48;99869.08;105381;1266;102634;-79
2023/03/23 07:34:51;;;;;;;18.80;11.00;;;;;;;11.87;93.26;99870.30;105171;1266;100363;-81
2023/03/23 07:37:48;;;;;;;16.80;11.20;;;;;;;11.92;92.83;99871.02;105618;1264;97995;-83
2023/03/23 07:40:36;;;;;;;18.10;11.90;;;;;;;11.97;92.48;99867.86;106094;1267;97886;-82
2023/03/23 07:43:26;;;;;;;15.80;10.90;;;;;;;12.01;92.23;99867.92;105512;1265;97889;-82
2023/03/23 07:46:31;;;;;;;19.10;11.10;;;;;;;12.04;91.68;99865.51;106020;1265;101468;-80
2023/03/23 07:49:30;;;;;;;20.20;12.60;;;;;;;12.08;91.67;99863.97;105621;1264;99112;-84
2023/03/23 07:52:33;;;;;;;21.00;12.50;;;;;;;12.12;91.40;99858.16;106002;1266;98114;-88
2023/03/23 07:55:19;;;;;;;18.60;12.40;;;;;;;12.16;91.14;99856.32;105834;1264;99431;-88
2023/03/23 07:58:18;;;;;;;21.10;12.40;;;;;;;12.22;91.13;99856.63;105481;1264;98423;-84
2023/03/23 08:01:06;;;;;;;21.90;12.30;;;;;;;12.26;90.78;99855.31;105617;1268;101463;-83
2023/03/23 08:03:57;;;;;;;22.00;12.70;;;;;;;12.30;90.80;99851.45;105624;1278;99095;-82
2023/03/23 08:07:06;;;;;;;16.60;11.50;;;;;;;12.34;90.96;99848.33;105966;1265;99109;-88
2023/03/23 08:10:02;;;;;;;17.60;11.30;;;;;;;12.41;91.05;99842.95;105795;1271;97962;-82
2023/03/23 08:13:14;;;;;;;18.10;12.40;;;;;;;12.48;91.24;99835.13;105782;1265;98532;-84
2023/03/23 08:16:28;;;;;;;21.00;13.00;;;;;;;12.58;91.42;99829.81;105643;1265;109948;-83
2023/03/23 08:19:27;;;;;;;17.60;11.50;;;;;;;12.65;91.04;99826.20;105429;1264;99168;-75
2023/03/23 08:22:24;;;;;;;16.00;11.20;;;;;;;12.75;91.22;99823.60;104762;1265;99061;-78
2023/03/23 08:25:31;;;;;;;17.70;11.80;;;;;;;12.82;90.47;99825.23;104929;1265;98043;-78
2023/03/23 08:28:37;;;;;;;18.80;12.00;;;;;;;12.88;89.94;99830.44;104723;1265;98580;-78
2023/03/23 08:31:54;;;;;;;18.70;11.90;;;;;;;12.93;89.62;99827.66;104586;1267;102808;-78
2023/03/23 08:34:59;;;;;;;18.90;11.90;;;;;;;12.98;89.35;99827.16;104743;1266;99257;-78
2023/03/23 08:37:58;;;;;;;18.50;12.70;;;;;;;13.02;89.08;99825.05;105141;1266;97771;-78
2023/03/23 08:41:10;;;;;;;16.80;11.50;;;;;;;13.07;89.06;99825.54;105194;1265;98085;-77
2023/03/23 08:44:10;;;;;;;17.70;12.20;;;;;;;13.09;88.47;99825.56;105030;1268;98501;-78
2023/03/23 08:47:19;;;;;;;15.80;12.00;;;;;;;13.09;88.36;99825.44;105188;1267;101529;-78
2023/03/23 08:50:26;;;;;;;20.00;12.40;;;;;;;13.10;88.05;99828.80;105199;1268;99975;-78
2023/03/23 08:53:32;;;;;;;15.70;10.90;;;;;;;13.13;87.77;99822.83;105173;1280;97987;-78
2023/03/23 08:56:45;;;;;;;17.70;11.70;;;;;;;13.17;87.46;99815.64;105095;1268;98026;-79
2023/03/23 08:59:49;;;;;;;15.90;11.00;;;;;;;13.23;87.39;99815.83;105038;1265;98434;-77
2023/03/23 09:02:51;;;;;;;18.40;11.50;;;;;;;13.30;87.28;99817.33;105361;1265;101332;-79
2023/03/23 09:05:45;;;;;;;18.50;11.70;;;;;;;13.37;87.18;99809.09;105293;1268;100092;-79
2023/03/23 09:08:42;;;;;;;15.80;10.90;;;;;;;13.45;87.01;99804.86;105334;1268;98076;-79
2023/03/23 09:11:28;;;;;;;20.40;12.20;;;;;;;13.53;86.88;99801.59;104997;1266;97889;-76
2023/03/23 09:14:13;;;;;;;19.00;12.10;;;;;;;13.59;86.91;99802.70;105228;1268;97882;-79
2023/03/23 09:17:00;;;;;;;21.10;10.70;;;;;;;13.67;86.67;99802.91;105351;1264;101262;-78
2023/03/23 09:19:46;;;;;;;17.30;11.50;;;;;;;13.75;86.42;99803.75;105201;1267;100086;-74
2023/03/23 09:22:31;;;;;;;16.30;11.10;;;;;;;13.83;86.30;99806.17;105122;1268;98056;-78
2023/03/23 09:25:21;;;;;;;15.80;10.10;;;;;;;13.92;86.10;99797.39;105290;1268;97945;-78
2023/03/23 09:28:07;;;;;;;16.20;9.70;;;;;;;14.02;85.66;99790.88;105270;1264;98725;-78
2023/03/23 09:30:56;;;;;;;14.80;9.20;;;;;;;14.13;85.31;99791.64;105200;1264;102694;-76
2023/03/23 09:33:41;;;;;;;19.80;8.70;;;;;;;14.22;85.16;99793.77;105231;1268;100344;-76
2023/03/23 09:36:31;;;;;;;11.50;8.90;;;;;;;14.30;84.30;99792.45;105450;1268;98104;-84
2023/03/23 09:39:17;;;;;;;12.40;8.00;;;;;;;14.39;83.26;99786.39;104658;1265;98223;-74
2023/03/23 09:42:53;;;;;;;13.10;8.60;;;;;;;14.50;83.33;99787.00;105916;1261;97989;31
2023/03/23 09:45:48;;;;;;;14.60;9.30;;;;;;;14.68;83.01;99785.33;104689;1270;101586;-76
2023/03/23 09:48:52;;;;;;;19.20;8.10;;;;;;;14.85;82.41;99786.00;104619;1270;100392;-76
2023/03/23 09:51:55;;;;;;;13.00;8.20;;;;;;;15.01;81.77;99784.94;104694;1267;98125;-77
2023/03/23 09:54:49;;;;;;;11.50;7.30;;;;;;;15.16;81.33;99782.36;106332;1267;98593;-77
2023/03/23 09:57:43;;;;;;;8.90;6.70;;;;;;;15.29;80.66;99777.95;105643;1267;97956;-76
2023/03/23 10:00:36;;;;;;;9.90;7.00;;;;;;;15.44;79.80;99776.13;104586;1267;101375;-77
2023/03/23 10:03:27;;;;;;;12.90;7.20;;;;;;;15.59;79.41;99768.98;104656;1267;99139;-76
2023/03/23 10:06:19;;;;;;;10.00;6.70;;;;;;;15.73;78.57;99772.52;104850;1270;99524;-77
2023/03/23 10:09:05;;;;;;;11.00;6.90;;;;;;;15.92;78.70;99765.81;107776;1265;95535;-77
2023/03/23 10:12:02;;;;;;;8.20;6.10;;;;;;;16.10;78.91;99773.94;105858;1267;98499;-76
2023/03/23 10:14:54;;;;;;;10.80;6.10;;;;;;;16.29;76.91;99770.49;104532;1270;101347;-75
2023/03/23 10:17:51;;;;;;;8.40;6.10;;;;;;;16.38;74.72;99766.91;97317;1267;10002678;-75
2023/03/23 10:20:52;;;;;;;9.20;5.90;;;;;;;16.43;74.11;99767.88;104586;1269;99282;-76
2023/03/23 10:24:01;;;;;;;9.00;5.80;;;;;;;16.47;73.13;99763.45;104563;1271;103285;-76
2023/03/23 10:27:14;;;;;;;9.00;5.90;;;;;;;16.53;72.14;99761.31;104702;1270;99698;-76
2023/03/23 10:30:31;;;;;;;7.50;5.30;;;;;;;16.64;71.92;99761.81;104610;1270;99950;-76
2023/03/23 10:33:32;;;;;;;7.20;5.30;;;;;;;16.75;71.16;99756.48;104484;1270;98626;-77
2023/03/23 10:36:57;;;;;;;10.20;5.70;;;;;;;16.87;70.84;99748.13;104695;1264;98453;-77
2023/03/23 10:39:58;;;;;;;8.00;5.40;;;;;;;17.00;70.53;99744.25;104565;1267;101499;-77
2023/03/23 10:42:44;;;;;;;11.70;5.70;;;;;;;17.08;69.50;99738.88;104487;1270;99751;-77
2023/03/23 10:45:32;;;;;;;7.40;5.10;;;;;;;17.12;69.19;99733.70;104556;1265;98070;-76
2023/03/23 10:48:32;;;;;;;12.40;6.20;;;;;;;17.15;68.30;99734.11;104539;1270;97892;-76
2023/03/23 10:51:26;;;;;;;8.70;5.20;;;;;;;17.18;68.73;99734.23;104755;1267;98482;-74
2023/03/23 10:54:11;;;;;;;7.20;5.60;;;;;;;17.24;68.62;99726.83;104748;1269;102585;-75
2023/03/23 10:56:57;;;;;;;9.00;5.50;;;;;;;17.30;68.56;99729.66;104549;1264;99207;-76
2023/03/23 10:59:44;;;;;;;6.60;5.10;;;;;;;17.36;67.50;99734.18;104438;1265;99053;-77
2023/03/23 11:02:30;;;;;;;6.40;5.30;;;;;;;17.40;67.64;99732.66;104759;1270;98575;-76
2023/03/23 11:05:20;;;;;;;6.30;5.50;;;;;;;17.45;67.53;99733.36;104606;1269;98204;-76
2023/03/23 11:08:15;;;;;;;10.20;5.20;;;;;;;17.52;66.86;99734.23;104558;1267;102607;-76
2023/03/23 11:11:11;;;;;;;7.60;5.90;;;;;;;17.60;66.43;99732.61;104464;1270;100326;-76
2023/03/23 11:14:12;;;;;;;9.00;5.70;;;;;;;17.62;66.24;99726.95;104426;1273;99109;-76
2023/03/23 11:17:01;;;;;;;7.60;5.40;;;;;;;17.65;66.15;99720.65;104502;1270;97905;-77
2023/03/23 11:19:47;;;;;;;8.20;6.30;;;;;;;17.71;66.73;99712.74;104505;1265;98499;-76
2023/03/23 11:22:32;;;;;;;11.80;5.60;;;;;;;17.77;66.49;99702.63;104549;1265;102466;-76
2023/03/23 11:25:18;;;;;;;7.40;5.10;;;;;;;17.81;66.20;99698.77;104529;1270;99109;-75
2023/03/23 11:28:04;;;;;;;10.70;6.00;;;;;;;17.83;65.49;99692.83;104591;1267;98619;-76
2023/03/23 11:30:54;;;;;;;8.50;6.10;;;;;;;17.85;65.32;99691.54;104648;1270;98004;-75
2023/03/23 11:33:52;;;;;;;5.90;3.90;;;;;;;17.87;64.73;99683.11;104644;1270;98522;-76
2023/03/23 11:36:42;;;;;;;6.10;2.90;;;;;;;17.89;63.89;99676.58;104683;1270;102601;-76
2023/03/23 11:39:32;;;;;;;6.40;2.40;;;;;;;17.88;62.20;99682.11;104654;1269;99081;-75
2023/03/23 11:42:27;;;;;;;5.20;2.10;;;;;;;17.89;61.53;99686.02;104552;1271;99320;-75
2023/03/23 11:45:18;;;;;;;2.30;1.60;;;;;;;17.92;61.30;99683.60;105063;1265;97993;-76
2023/03/23 11:48:22;;;;;;;3.70;2.50;;;;;;;17.98;60.90;99680.41;104550;1265;99320;-75
2023/03/23 11:51:16;;;;;;;3.50;1.60;;;;;;;17.97;59.65;99675.14;104604;1268;102619;-75
2023/03/23 11:54:13;;;;;;;2.40;1.40;;;;;;;17.94;59.68;99664.65;104617;1269;100337;-76
2023/03/23 11:56:59;;;;;;;1.60;1.10;;;;;;;18.04;60.17;99661.44;104659;1270;99020;-77
2023/03/23 11:59:45;;;;;;;2.00;1.50;;;;;;;18.18;59.12;99650.10;104749;1270;97942;-76
2023/03/23 12:02:50;;;;;;;3.40;1.50;;;;;;;18.32;58.59;99651.57;104598;1270;97905;-77
2023/03/23 12:06:24;;;;;;;3.00;1.30;;;;;;;18.48;58.40;99654.06;104577;1264;102674;-77
2023/03/23 12:09:30;;;;;;;2.40;1.40;;;;;;;18.62;57.48;99655.13;104231;1267;99899;-75
2023/03/23 12:12:47;;;;;;;5.20;1.70;;;;;;;18.72;57.79;99649.82;104616;1271;99473;-76
2023/03/23 12:16:08;;;;;;;4.30;1.80;;;;;;;18.81;56.48;99648.41;104548;1270;99295;-75
2023/03/23 12:18:59;;;;;;;4.10;2.40;;;;;;;18.85;55.68;99645.92;104610;1267;97971;-77
2023/03/23 12:21:50;;;;;;;5.20;2.90;;;;;;;18.88;55.45;99650.99;104567;1267;101378;-76
2023/03/23 12:24:51;;;;;;;4.60;2.70;;;;;;;18.93;55.79;99658.13;104549;1269;99727;-76
2023/03/23 12:28:02;;;;;;;8.80;7.10;;;;;;;18.92;55.80;99657.09;104619;1270;98007;-76
2023/03/23 12:30:58;;;;;;;5.90;3.20;;;;;;;18.88;55.76;99656.52;104601;1273;98729;-75
2023/03/23 12:34:05;;;;;;;3.80;2.30;;;;;;;18.84;55.51;99654.99;104615;1269;99688;-77
2023/03/23 12:37:03;;;;;;;4.50;2.70;;;;;;;18.80;54.87;99656.27;104575;1268;102648;-76
2023/03/23 12:40:06;;;;;;;3.50;2.50;;;;;;;18.75;54.71;99652.45;104513;1271;99250;-76
2023/03/23 12:42:59;;;;;;;7.20;2.80;;;;;;;18.73;55.11;99654.34;105195;1267;98081;-77
2023/03/23 12:45:55;;;;;;;6.00;2.30;;;;;;;18.72;55.16;99654.32;104542;1267;97914;-77
2023/03/23 12:48:44;;;;;;;7.70;2.80;;;;;;;18.70;55.22;99653.66;104778;1267;99164;-76
2023/03/23 12:51:44;;;;;;;2.70;2.10;;;;;;;18.65;55.43;99656.50;104484;1270;101384;-76
2023/03/23 12:54:37;;;;;;;3.60;2.60;;;;;;;18.56;55.05;99658.45;104575;1270;100150;-76
2023/03/23 12:57:42;;;;;;;3.40;2.20;;;;;;;18.50;54.99;99656.45;104610;1270;98965;-75
2023/03/23 13:00:34;;;;;;;8.30;3.60;;;;;;;18.46;55.35;99660.34;104631;1264;98611;-76
2023/03/23 13:03:44;;;;;;;6.00;2.20;;;;;;;18.41;55.30;99663.20;104619;1267;98130;-77
2023/03/23 13:06:35;;;;;;;3.70;3.10;;;;;;;18.33;55.09;99668.83;104663;1265;102112;-77
2023/03/23 13:09:30;;;;;;;4.40;3.00;;;;;;;18.24;55.30;99673.64;104620;1270;99130;-77
2023/03/23 13:12:16;;;;;;;3.20;2.90;;;;;;;18.17;55.26;99669.30;104426;1267;99601;-77
2023/03/23 13:15:24;;;;;;;3.90;2.70;;;;;;;18.12;54.97;99677.29;104580;1267;98511;-78